Akron, CO

10:24 PM MDT on July 22, 2017 (GMT -0600)
Akron-Washington County

Weather History for KAKO - May, 2014

Change the Weather History Date:

Monday, May 12, 2014

  Actual Average Record
Temperature  
Mean Temperature 37 °F 56 °F  
Max Temperature 44 °F 69 °F 93 °F (1962)
Min Temperature 29 °F 42 °F 22 °F (1953)
Degree Days  
Heating Degree Days 28    
Month to date heating degree days 155  
Cooling Degree Days 0    
Month to date cooling degree days 0  
Moisture  
Dew Point 30 °F    
Average Humidity 76    
Maximum Humidity 100    
Minimum Humidity 51    
Precipitation  
Precipitation 0.10 in 0.09 in 2.15 in (1975)
Month to date precipitation 1.64 1.01  
Year to date precipitation 3.26 4.27  
Sea Level Pressure  
Sea Level Pressure 30.18 in    
Wind  
Wind Speed 23 mph (NNW)    
Max Wind Speed 35 mph    
Max Gust Speed 42 mph    
Visibility 4 miles    
Events Fog , Snow    
T = Trace of Precipitation, MM = Missing Value Source: NWS Daily Summary

Daily Weather History Graph

Daily Weather History Graph

Search for Another Location

Airport or City:

Trip Planner

Search our weather history database for the weather conditions in past years. The results will help you decide how hot, cold, wet, or windy it might be!

Date:

Astronomy

May. 12, 2014 Rise Set
Actual Time 5:40 AM MDT 7:59 PM MDT
Civil Twilight 5:09 AM MDT 8:29 PM MDT
Nautical Twilight 4:32 AM MDT 9:07 PM MDT
Astronomical Twilight 3:50 AM MDT 9:48 PM MDT
Moon 5:59 PM MDT (5/12) 4:20 AM MDT (5/12)
Length of Visible Light 15h 19m
Length of Day
14h 18m
Waxing Gibbous, 95% of the Moon is Illuminated
May 12
Waxing Gibbous
May 14
Full
May 21
Last Quarter
May 28
New
Jun 5
First Quarter

Hourly Weather History & Observations

Time (MDT) Temp. Windchill Dew Point Humidity Pressure Visibility Wind Dir Wind Speed Gust Speed Precip Events Conditions
12:28 AM 33.1 °F 20.6 °F 32.0 °F 96% 30.02 in 2.0 mi North 23.0 mph 28.8 mph 0.02 in Snow Light Snow
12:53 AM 33.1 °F 21.2 °F 32.0 °F 96% 30.08 in 2.0 mi North 20.7 mph - 0.02 in Snow Light Snow
1:04 AM 33.1 °F 20.6 °F 32.0 °F 96% 30.03 in 1.5 mi North 23.0 mph 31.1 mph 0.01 in Snow Light Snow
1:30 AM 33.1 °F 20.6 °F 32.0 °F 96% 30.03 in 1.2 mi North 23.0 mph 32.2 mph 0.03 in Snow Light Snow
1:46 AM 32.0 °F 18.9 °F 32.0 °F 100% 30.02 in 1.0 mi North 24.2 mph - 0.03 in Snow Light Snow
1:53 AM 32.0 °F 18.9 °F 32.0 °F 100% 30.06 in 1.0 mi North 24.2 mph 29.9 mph 0.03 in Snow Light Snow
2:00 AM 32.0 °F 18.9 °F 32.0 °F 100% 30.02 in 1.2 mi North 24.2 mph - 0.01 in Snow Light Snow
2:26 AM 32.0 °F 19.5 °F 32.0 °F 100% 30.02 in 1.5 mi North 21.9 mph - 0.01 in Snow Light Snow
2:53 AM 32.0 °F 19.5 °F 30.9 °F 96% 30.07 in 1.2 mi North 21.9 mph - 0.01 in Snow Light Snow
3:07 AM 32.0 °F 20.1 °F 30.9 °F 96% 30.02 in 1.5 mi North 19.6 mph - 0.00 in Snow Light Snow
3:38 AM 32.0 °F 20.1 °F 30.9 °F 96% 30.04 in 1.5 mi North 19.6 mph - 0.00 in Snow Light Snow
3:53 AM 32.0 °F 20.8 °F 30.9 °F 96% 30.11 in 1.5 mi North 17.3 mph - 0.00 in Snow Light Snow
4:13 AM 32.0 °F 18.9 °F 30.9 °F 96% 30.04 in 1.2 mi North 24.2 mph 28.8 mph 0.01 in Snow Light Snow
4:20 AM 32.0 °F 19.5 °F 30.9 °F 96% 30.05 in 1.5 mi North 21.9 mph 31.1 mph 0.01 in Snow Light Snow
4:32 AM 32.0 °F 20.5 °F 30.9 °F 96% 30.06 in 1.2 mi North 18.4 mph - 0.01 in Snow Light Snow
4:41 AM 32.0 °F 19.8 °F 30.9 °F 96% 30.06 in 1.2 mi North 20.7 mph - 0.01 in Snow Light Snow
4:47 AM 32.0 °F 18.9 °F 30.2 °F 93% 30.06 in 1.0 mi North 24.2 mph 31.1 mph 0.01 in Snow Light Snow
4:53 AM 32.0 °F 18.6 °F 30.9 °F 96% 30.12 in 1.0 mi North 25.3 mph 36.8 mph 0.01 in Snow Light Snow
5:18 AM 32.0 °F 17.2 °F 30.9 °F 96% 30.06 in 0.8 mi North 32.2 mph 39.1 mph 0.00 in Snow Light Snow
5:53 AM 30.9 °F 16.7 °F 30.0 °F 96% 30.16 in 0.8 mi North 27.6 mph - 0.01 in Snow Light Snow
6:01 AM 30.9 °F 17.8 °F 30.9 °F 100% 30.10 in 0.8 mi NNW 23.0 mph - 0.00 in Snow Light Snow
6:15 AM 30.9 °F 15.9 °F 30.0 °F 96% 30.11 in 0.2 mi NNW 31.1 mph 38.0 mph 0.01 in Fog , Snow Snow
6:53 AM 30.9 °F 17.2 °F 30.0 °F 96% 30.20 in 0.2 mi North 25.3 mph - 0.03 in Fog , Snow Snow
7:43 AM 30.9 °F 17.2 °F 30.0 °F 96% 30.16 in 0.8 mi North 25.3 mph 34.5 mph 0.00 in Snow Light Snow
8:00 AM 30.9 °F 17.8 °F 30.0 °F 96% 30.17 in 1.0 mi North 23.0 mph - 0.00 in Snow Light Snow
8:09 AM 30.9 °F 18.4 °F 30.0 °F 96% 30.17 in 0.5 mi North 20.7 mph - 0.00 in Fog , Snow Snow
8:16 AM 30.9 °F 18.4 °F 30.0 °F 96% 30.18 in 0.5 mi North 20.7 mph - 0.00 in Fog , Snow Snow
8:26 AM 30.9 °F 16.4 °F 30.0 °F 96% 30.19 in 0.2 mi North 28.8 mph 34.5 mph 0.01 in Fog , Snow Snow
8:53 AM 30.9 °F 16.4 °F 30.0 °F 96% 30.27 in 0.5 mi North 28.8 mph 34.5 mph 0.02 in Fog , Snow Snow
8:55 AM 30.9 °F 16.4 °F 28.9 °F 92% 30.20 in 0.8 mi North 28.8 mph 34.5 mph 0.00 in Snow Light Snow
9:04 AM 30.9 °F 17.2 °F 30.0 °F 96% 30.21 in 0.5 mi North 25.3 mph - 0.00 in Fog , Snow Light Snow
9:16 AM 30.9 °F 18.1 °F 30.0 °F 96% 30.21 in 1.0 mi North 21.9 mph - 0.00 in Snow Light Snow
9:30 AM 32.0 °F 18.4 °F 30.0 °F 92% 30.21 in 1.2 mi North 26.5 mph - 0.00 in Snow Light Snow
9:37 AM 32.0 °F 19.5 °F 30.0 °F 92% 30.21 in 1.8 mi North 21.9 mph 31.1 mph 0.00 in Snow Light Snow
9:43 AM 32.0 °F 19.2 °F 30.0 °F 92% 30.22 in 1.0 mi NNW 23.0 mph - 0.00 in Snow Light Snow
9:53 AM 32.0 °F 19.5 °F 30.0 °F 92% 30.29 in 1.2 mi North 21.9 mph - 0.00 in Snow Light Snow
10:00 AM 32.0 °F 19.5 °F 30.0 °F 92% 30.22 in 1.8 mi NNW 21.9 mph - 0.00 in Snow Light Snow
10:07 AM 32.0 °F 19.5 °F 30.0 °F 92% 30.22 in 2.0 mi NNW 21.9 mph - 0.00 in Snow Light Snow
10:11 AM 32.0 °F 19.8 °F 30.0 °F 92% 30.22 in 1.2 mi NNW 20.7 mph - 0.00 in Snow Light Snow
10:17 AM 32.0 °F 20.1 °F 30.0 °F 92% 30.23 in 1.0 mi NNW 19.6 mph - 0.00 in Snow Light Snow
10:23 AM 32.0 °F 21.2 °F 30.9 °F 96% 30.23 in 1.5 mi NNW 16.1 mph - 0.00 in Snow Light Snow
10:31 AM 33.1 °F 22.2 °F 30.0 °F 89% 30.23 in 2.5 mi NNW 17.3 mph - 0.00 in Snow Light Snow
10:41 AM 33.1 °F 19.8 °F 30.0 °F 89% 30.23 in 1.8 mi NNW 26.5 mph 32.2 mph 0.00 in Snow Light Snow
10:51 AM 33.8 °F 21.6 °F 30.2 °F 87% 30.23 in 3.0 mi NNW 23.0 mph 32.2 mph 0.00 in Snow Light Snow
10:53 AM 34.0 °F 21.0 °F 30.0 °F 85% 30.30 in 3.0 mi NNW 26.5 mph 32.2 mph 0.00 in Snow Light Snow
11:18 AM 34.0 °F 22.1 °F 30.0 °F 85% 30.23 in 5.0 mi North 21.9 mph - 0.00 in Snow Light Snow
11:38 AM 35.1 °F 22.5 °F 28.9 °F 78% 30.23 in 10.0 mi North 26.5 mph 33.4 mph 0.00 in   Mostly Cloudy
11:53 AM 36.0 °F 23.7 °F 28.9 °F 76% 30.30 in 10.0 mi NNW 26.5 mph 33.4 mph 0.00 in   Mostly Cloudy
12:03 PM 35.1 °F 23.0 °F 30.0 °F 82% 30.23 in 10.0 mi NNW 24.2 mph 32.2 mph N/A   Overcast
12:37 PM 37.9 °F 27.1 °F 28.9 °F 70% 30.23 in 10.0 mi North 23.0 mph 32.2 mph N/A   Mostly Cloudy
12:53 PM 37.0 °F 25.6 °F 28.9 °F 73% 30.28 in 10.0 mi NNW 24.2 mph - N/A   Mostly Cloudy
1:53 PM 39.0 °F 29.3 °F 28.0 °F 65% 30.28 in 10.0 mi North 19.6 mph 28.8 mph 0.00 in   Overcast
2:53 PM 39.0 °F 29.3 °F 27.0 °F 62% 30.30 in 10.0 mi North 19.6 mph - N/A   Overcast
3:53 PM 39.9 °F 31.1 °F 28.0 °F 63% 30.29 in 10.0 mi NNW 17.3 mph - 0.00 in   Overcast
4:53 PM 42.1 °F 32.8 °F 27.0 °F 55% 30.27 in 10.0 mi NNW 21.9 mph 29.9 mph N/A   Overcast
5:53 PM 41.0 °F 30.9 °F 25.0 °F 53% 30.28 in 10.0 mi NNW 24.2 mph 32.2 mph N/A   Mostly Cloudy
6:53 PM 39.9 °F 30.0 °F 26.1 °F 58% 30.28 in 10.0 mi NNW 21.9 mph 27.6 mph N/A   Scattered Clouds
7:53 PM 37.9 °F 27.9 °F 25.0 °F 60% 30.31 in 10.0 mi NNW 19.6 mph - N/A   Partly Cloudy
9:53 PM 32.0 °F 23.0 °F 26.1 °F 79% 30.40 in 10.0 mi NW 11.5 mph - N/A   Clear
10:53 PM 30.9 °F 23.5 °F 26.1 °F 82% 30.42 in 10.0 mi WNW 8.1 mph - N/A   Clear
11:53 PM 30.0 °F 20.5 °F 26.1 °F 85% 30.42 in 10.0 mi WNW 11.5 mph - N/A   Clear